Time;durP1;ratioP1;P1;durP2;ratioP2;P2;SDS_P1;SDS_P2;PMS_P1;PMS_P2;Temp;Humidity;BMP_temperature;BMP_pressure;BME280_temperature;BME280_humidity;BME280_pressure;Samples;Min_cycle;Max_cycle;Signal;HPM_P1;HPM_P2
2023/05/02 00:01:19;;;;;;;9.65;3.20;;;;;;;5.60;100.00;101821.09;5111602;28;20051;-83
2023/05/02 00:03:46;;;;;;;16.02;3.13;;;;;;;5.39;100.00;101796.81;5101498;28;20047;-83
2023/05/02 00:06:13;;;;;;;10.73;3.50;;;;;;;5.55;100.00;101833.22;5105340;28;20050;-83
2023/05/02 00:08:39;;;;;;;9.60;3.47;;;;;;;5.45;100.00;101795.94;5112072;28;20071;-82
2023/05/02 00:11:06;;;;;;;9.32;3.28;;;;;;;5.65;100.00;101824.56;5107858;28;20056;-82
2023/05/02 00:13:33;;;;;;;11.30;3.45;;;;;;;5.85;100.00;101853.13;5113551;28;20552;-82
2023/05/02 00:16:00;;;;;;;13.77;4.13;;;;;;;5.57;100.00;101808.09;5112773;28;20055;-83
2023/05/02 00:18:27;;;;;;;9.93;3.35;;;;;;;5.86;100.00;101863.53;5111048;28;20481;-82
2023/05/02 00:20:55;;;;;;;13.70;3.80;;;;;;;5.68;100.00;101859.19;5111801;28;20051;-82
2023/05/02 00:23:22;;;;;;;10.88;3.50;;;;;;;5.30;100.00;101792.47;5111912;28;20469;-82
2023/05/02 00:25:49;;;;;;;16.45;3.38;;;;;;;5.65;100.00;101822.81;5101408;28;20040;-81
2023/05/02 00:28:17;;;;;;;10.80;3.90;;;;;;;5.45;100.00;101814.13;5114164;28;20043;-82
2023/05/02 00:30:45;;;;;;;16.40;4.18;;;;;;;5.57;100.00;101811.53;5109842;27;20040;-81
2023/05/02 00:33:13;;;;;;;9.50;3.47;;;;;;;5.81;100.00;101838.41;5122453;27;20452;-82
2023/05/02 00:35:40;;;;;;;10.98;3.53;;;;;;;5.64;100.00;101817.63;5107151;28;20036;-82
2023/05/02 00:38:07;;;;;;;11.23;3.53;;;;;;;5.42;100.00;101788.16;5104420;28;20564;-82
2023/05/02 00:40:48;;;;;;;12.68;3.80;;;;;;;5.85;100.00;101860.94;5103750;28;20040;-82
2023/05/02 00:43:15;;;;;;;11.07;3.90;;;;;;;5.92;100.00;101834.06;5103269;28;20051;-82
2023/05/02 00:45:44;;;;;;;10.07;2.83;;;;;;;6.06;100.00;101860.94;5103569;28;20043;-82
2023/05/02 00:48:11;;;;;;;9.50;2.95;;;;;;;5.93;100.00;101842.72;5113436;28;20465;-82
2023/05/02 00:50:40;;;;;;;7.53;2.60;;;;;;;6.03;100.00;101873.94;5114047;28;20130;-82
2023/05/02 00:53:08;;;;;;;6.53;2.38;;;;;;;6.16;100.00;101866.13;5109153;28;20062;-82
2023/05/02 00:55:36;;;;;;;9.05;2.75;;;;;;;5.88;100.00;101816.75;5113800;28;20377;-82
2023/05/02 00:58:06;;;;;;;8.07;2.63;;;;;;;6.21;100.00;101859.19;5099965;28;20055;-82
2023/05/02 01:00:44;;;;;;;7.25;2.65;;;;;;;6.03;100.00;101818.50;5098977;28;20051;-82
2023/05/02 01:03:25;;;;;;;11.85;3.30;;;;;;;6.02;100.00;101830.63;5107351;28;20386;-82
2023/05/02 01:06:30;;;;;;;9.02;2.75;;;;;;;6.26;100.00;101854.84;5097665;28;20047;-82
2023/05/02 01:09:38;;;;;;;8.80;2.72;;;;;;;6.27;100.00;101860.06;5075765;28;20058;-82
2023/05/02 01:12:30;;;;;;;6.72;2.00;;;;;;;6.14;100.00;101863.53;5109093;28;20063;-81
2023/05/02 01:14:58;;;;;;;7.68;3.08;;;;;;;6.04;100.00;101848.84;5105083;28;20047;-81
2023/05/02 01:17:29;;;;;;;8.32;2.45;;;;;;;5.81;100.00;101821.06;5112518;28;20044;-82
2023/05/02 01:20:03;;;;;;;8.40;2.38;;;;;;;6.10;100.00;101869.63;5113664;28;20382;-82
2023/05/02 01:22:31;;;;;;;9.77;2.40;;;;;;;6.08;100.00;101863.56;5111892;28;20532;-82
2023/05/02 01:25:33;;;;;;;8.27;2.65;;;;;;;6.26;100.00;101870.47;5112079;28;20055;-82
2023/05/02 01:28:23;;;;;;;7.15;2.13;;;;;;;6.38;100.00;101872.19;5107811;28;20051;-83
2023/05/02 01:30:53;;;;;;;6.68;2.50;;;;;;;6.11;100.00;101839.25;5113174;28;20104;-82
2023/05/02 01:33:23;;;;;;;8.85;2.35;;;;;;;5.78;100.00;101809.81;5104972;28;20043;-82
2023/05/02 01:35:51;;;;;;;8.60;3.20;;;;;;;6.05;100.00;101851.41;5099277;28;20428;-82
2023/05/02 01:38:19;;;;;;;11.45;3.38;;;;;;;6.30;100.00;101886.94;5112792;28;20047;-82
2023/05/02 01:40:49;;;;;;;8.98;2.90;;;;;;;6.14;100.00;101888.69;5112087;28;20051;-82
2023/05/02 01:43:19;;;;;;;7.63;2.83;;;;;;;6.22;100.00;101889.56;5110645;28;20427;-82
2023/05/02 01:45:48;;;;;;;14.18;2.83;;;;;;;6.19;100.00;101879.13;5113295;28;20043;-82
2023/05/02 01:48:18;;;;;;;8.68;2.83;;;;;;;6.10;100.00;101866.16;5112711;28;20043;-82
2023/05/02 01:50:47;;;;;;;11.63;2.67;;;;;;;6.20;100.00;101899.09;5108530;28;20074;-83
2023/05/02 01:53:14;;;;;;;9.18;2.58;;;;;;;6.16;100.00;101869.63;5110949;28;20063;-83
2023/05/02 01:55:44;;;;;;;8.55;2.88;;;;;;;6.33;100.00;101911.19;5106407;28;20051;-83
2023/05/02 01:58:12;;;;;;;8.60;2.40;;;;;;;6.07;100.00;101862.69;5110698;28;20052;-83
2023/05/02 02:00:40;;;;;;;8.32;2.60;;;;;;;5.99;100.00;101854.03;5102258;28;20066;-83
2023/05/02 02:03:09;;;;;;;11.02;2.78;;;;;;;6.12;100.00;101869.63;5105852;28;20138;-83
2023/05/02 02:05:38;;;;;;;13.68;3.45;;;;;;;6.05;100.00;101872.19;5112706;27;20071;-83
2023/05/02 02:08:05;;;;;;;10.45;2.78;;;;;;;5.95;100.00;101879.97;5099375;28;20052;-82
2023/05/02 02:10:39;;;;;;;7.80;2.65;;;;;;;6.04;100.00;101870.50;5111707;28;20040;-82
2023/05/02 02:13:15;;;;;;;9.30;3.05;;;;;;;6.19;100.00;101895.59;5111861;28;20131;-83
2023/05/02 02:15:46;;;;;;;13.50;4.20;;;;;;;5.89;100.00;101862.66;5112232;28;20054;-83
2023/05/02 02:18:20;;;;;;;11.60;2.97;;;;;;;6.03;100.00;101866.16;5104585;28;20055;-83
2023/05/02 02:20:49;;;;;;;8.10;2.63;;;;;;;6.19;100.00;101906.00;5107055;28;20059;-83
2023/05/02 02:23:27;;;;;;;9.30;2.70;;;;;;;6.38;100.00;101906.84;5107221;28;20047;-83
2023/05/02 02:25:56;;;;;;;9.68;2.75;;;;;;;6.12;100.00;101882.63;5104738;28;20044;-82
2023/05/02 02:28:23;;;;;;;7.28;2.28;;;;;;;6.04;100.00;101880.88;5107046;28;20047;-83
2023/05/02 02:30:50;;;;;;;7.70;2.50;;;;;;;6.06;100.00;101884.34;5111820;27;20051;-83
2023/05/02 02:33:18;;;;;;;9.18;2.78;;;;;;;6.05;100.00;101880.00;5114804;28;20054;-83
2023/05/02 02:35:54;;;;;;;11.90;3.15;;;;;;;6.26;100.00;101893.88;5112065;28;20051;-83
2023/05/02 02:38:27;;;;;;;9.38;2.67;;;;;;;6.40;100.00;101912.91;5113855;28;20062;-83
2023/05/02 02:41:00;;;;;;;11.45;3.38;;;;;;;5.81;100.00;101826.28;5113443;28;20664;-83
2023/05/02 02:43:49;;;;;;;11.93;3.00;;;;;;;6.41;100.00;101906.88;5111246;28;20063;-83
2023/05/02 02:46:25;;;;;;;16.27;3.80;;;;;;;6.32;100.00;101903.41;5100655;28;20044;-83
2023/05/02 02:49:30;;;;;;;10.63;2.85;;;;;;;6.42;100.00;101908.56;5108692;28;20086;-83
2023/05/02 02:52:09;;;;;;;8.38;3.10;;;;;;;6.34;100.00;101889.53;5106062;28;20043;-83
2023/05/02 02:54:51;;;;;;;9.00;2.72;;;;;;;6.32;100.00;101893.88;5115012;28;20062;-81
2023/05/02 02:57:31;;;;;;;10.32;3.75;;;;;;;6.40;100.00;101910.31;5112792;28;20526;-82
2023/05/02 03:00:26;;;;;;;8.68;3.13;;;;;;;6.26;100.00;101899.06;5109072;28;20058;-82
2023/05/02 03:02:54;;;;;;;8.85;2.78;;;;;;;6.05;100.00;101893.00;5108043;27;20048;-82
2023/05/02 03:05:22;;;;;;;7.25;2.78;;;;;;;6.01;100.00;101885.22;5106008;28;20074;-83
2023/05/02 03:07:50;;;;;;;11.20;3.28;;;;;;;6.15;100.00;101895.63;5113619;28;20478;-82
2023/05/02 03:10:16;;;;;;;7.55;2.47;;;;;;;6.07;100.00;101903.41;5112730;28;20149;-82
2023/05/02 03:12:43;;;;;;;7.53;2.58;;;;;;;5.94;100.00;101873.06;5114929;27;20051;-82
2023/05/02 03:15:42;;;;;;;10.18;2.97;;;;;;;6.22;100.00;101910.34;5114617;28;20051;-82
2023/05/02 03:18:09;;;;;;;6.20;2.20;;;;;;;6.07;100.00;101914.69;5070914;28;20066;-82
2023/05/02 03:20:36;;;;;;;7.88;2.38;;;;;;;5.83;100.00;101870.47;5111867;28;20084;-82
2023/05/02 03:23:02;;;;;;;6.68;2.10;;;;;;;5.85;100.00;101860.94;5105696;28;20096;-82
2023/05/02 03:25:29;;;;;;;9.95;2.45;;;;;;;5.97;100.00;101870.50;5112586;28;20489;-82
2023/05/02 03:27:57;;;;;;;8.27;2.70;;;;;;;5.96;100.00;101885.22;5102060;28;20047;-82
2023/05/02 03:30:23;;;;;;;8.20;2.42;;;;;;;5.79;100.00;101833.22;5113017;28;20126;-82
2023/05/02 03:32:51;;;;;;;8.20;2.30;;;;;;;6.11;100.00;101925.06;5111718;28;20056;-82
2023/05/02 03:35:17;;;;;;;10.30;2.40;;;;;;;5.90;100.00;101886.06;5118032;27;20054;-82
2023/05/02 03:37:44;;;;;;;7.00;2.15;;;;;;;5.91;100.00;101871.31;5109422;28;20474;-82
2023/05/02 03:40:11;;;;;;;7.65;2.20;;;;;;;5.99;100.00;101871.38;5100011;28;20102;-82
2023/05/02 03:42:40;;;;;;;6.43;2.03;;;;;;;6.11;100.00;101899.06;5107880;28;20044;-82
2023/05/02 03:45:07;;;;;;;7.10;2.33;;;;;;;6.11;100.00;101884.38;5114854;28;20048;-82
2023/05/02 03:47:34;;;;;;;8.18;2.20;;;;;;;6.04;100.00;101875.69;5114481;28;20050;-82
2023/05/02 03:50:02;;;;;;;6.63;2.22;;;;;;;5.99;100.00;101868.75;5108710;28;20054;-82
2023/05/02 03:52:28;;;;;;;7.93;2.65;;;;;;;5.98;100.00;101872.22;5103081;28;20937;-83
2023/05/02 03:54:56;;;;;;;12.00;2.30;;;;;;;6.23;100.00;101919.88;5113624;28;20051;-81
2023/05/02 03:57:23;;;;;;;7.68;2.20;;;;;;;5.66;100.00;101834.06;5106809;28;20474;-83
2023/05/02 03:59:49;;;;;;;6.18;2.08;;;;;;;5.59;100.00;101821.94;5113157;28;20382;-81
2023/05/02 04:02:16;;;;;;;8.18;2.13;;;;;;;6.00;100.00;101889.56;5113873;28;20050;-82
2023/05/02 04:04:43;;;;;;;8.32;1.92;;;;;;;6.07;100.00;101911.22;5100789;28;20555;-82
2023/05/02 04:07:16;;;;;;;9.15;2.10;;;;;;;6.00;100.00;101889.56;5113838;27;20063;-82
2023/05/02 04:09:44;;;;;;;7.07;2.20;;;;;;;6.24;100.00;101912.06;5097712;28;20048;-81
2023/05/02 04:12:10;;;;;;;8.63;1.90;;;;;;;6.01;100.00;101867.03;5100827;28;20043;-81
2023/05/02 04:14:37;;;;;;;13.93;2.40;;;;;;;5.88;100.00;101860.94;5113021;28;20043;-81
2023/05/02 04:17:04;;;;;;;7.00;2.08;;;;;;;5.88;100.00;101867.00;5108967;28;20048;-82
2023/05/02 04:19:31;;;;;;;4.53;1.77;;;;;;;6.16;100.00;101900.84;5104579;28;20059;-82
2023/05/02 04:21:57;;;;;;;6.88;2.10;;;;;;;5.95;100.00;101866.97;5100390;28;20047;-82
2023/05/02 04:24:24;;;;;;;7.43;3.03;;;;;;;6.31;100.00;101910.34;5106671;28;20155;-82
2023/05/02 04:26:51;;;;;;;5.78;2.00;;;;;;;6.22;100.00;101885.19;5108430;28;20063;-83
2023/05/02 04:29:17;;;;;;;8.57;2.33;;;;;;;6.49;100.00;101927.66;5106828;28;20050;-82
2023/05/02 04:31:44;;;;;;;8.25;2.40;;;;;;;6.29;100.00;101882.63;5112252;28;20667;-82
2023/05/02 04:34:11;;;;;;;6.63;1.98;;;;;;;6.30;100.00;101881.72;5111485;28;20052;-82
2023/05/02 04:36:38;;;;;;;4.05;1.70;;;;;;;6.56;100.00;101913.75;5111551;28;20155;-83
2023/05/02 04:39:06;;;;;;;4.45;1.77;;;;;;;6.64;100.00;101926.78;5109552;28;20039;-82
2023/05/02 04:41:33;;;;;;;9.48;2.28;;;;;;;6.69;100.00;101937.16;5106197;28;20054;-82
2023/05/02 04:44:00;;;;;;;6.32;2.15;;;;;;;6.45;100.00;101886.91;5110199;28;20047;-82
2023/05/02 04:46:27;;;;;;;7.72;2.03;;;;;;;6.61;100.00;101903.34;5113552;28;20622;-82
2023/05/02 04:48:53;;;;;;;5.95;2.08;;;;;;;6.41;100.00;101873.03;5100133;28;20507;-82
2023/05/02 04:51:21;;;;;;;5.78;2.17;;;;;;;6.56;100.00;101879.94;5112736;28;20089;-82
2023/05/02 04:53:47;;;;;;;7.65;2.05;;;;;;;6.71;100.00;101914.59;5113172;28;20070;-82
2023/05/02 04:56:14;;;;;;;6.22;2.05;;;;;;;6.61;100.00;101905.97;5108411;28;20485;-82
2023/05/02 04:58:41;;;;;;;7.10;2.10;;;;;;;6.76;100.00;101908.50;5100180;28;20428;-82
2023/05/02 05:01:07;;;;;;;5.25;2.10;;;;;;;6.83;100.00;101911.94;5097840;28;20047;-82
2023/05/02 05:03:34;;;;;;;5.72;1.88;;;;;;;6.80;100.00;101896.38;5110287;28;20040;-83
2023/05/02 05:06:01;;;;;;;7.15;1.88;;;;;;;6.80;100.00;101897.22;5113152;28;20048;-82
2023/05/02 05:08:28;;;;;;;7.72;2.28;;;;;;;6.84;100.00;101906.75;5099947;28;20544;-82
2023/05/02 05:10:55;;;;;;;4.93;2.08;;;;;;;6.80;100.00;101917.19;5103289;28;20405;-82
2023/05/02 05:13:22;;;;;;;7.32;1.98;;;;;;;6.84;100.00;101947.53;5110764;28;20075;-83
2023/05/02 05:15:49;;;;;;;5.50;2.13;;;;;;;6.81;100.00;101911.94;5113962;28;20090;-82
2023/05/02 05:18:15;;;;;;;6.25;1.90;;;;;;;6.81;100.00;101918.91;5113563;28;20046;-83
2023/05/02 05:20:42;;;;;;;9.05;2.10;;;;;;;7.00;100.00;101943.16;5113496;28;20048;-82
2023/05/02 05:23:09;;;;;;;6.32;2.35;;;;;;;7.01;100.00;101948.38;5111403;28;20051;-82
2023/05/02 05:25:35;;;;;;;5.70;1.80;;;;;;;6.88;100.00;101933.63;5100355;28;20051;-82
2023/05/02 05:28:02;;;;;;;3.72;1.70;;;;;;;6.81;100.00;101917.16;5107893;28;20512;-82
2023/05/02 05:30:30;;;;;;;5.18;1.75;;;;;;;6.83;100.00;101933.66;5106080;28;20056;-83
2023/05/02 05:32:59;;;;;;;11.30;2.38;;;;;;;6.76;100.00;101921.50;5102044;28;20408;-84
2023/05/02 05:35:30;;;;;;;6.85;2.13;;;;;;;6.97;100.00;101951.81;5098415;28;20130;-83
2023/05/02 05:37:57;;;;;;;3.70;1.50;;;;;;;6.65;100.00;101899.88;5101014;28;20086;-83
2023/05/02 05:40:24;;;;;;;7.00;2.70;;;;;;;6.79;100.00;101929.31;5106111;28;20047;-83
2023/05/02 05:42:51;;;;;;;7.45;2.05;;;;;;;7.01;100.00;101965.69;5101916;28;20074;-83
2023/05/02 05:45:18;;;;;;;3.72;1.65;;;;;;;6.97;100.00;101932.75;5107619;28;20047;-83
2023/05/02 05:47:45;;;;;;;7.05;2.25;;;;;;;7.06;100.00;101945.72;5100347;28;20047;-82
2023/05/02 05:50:12;;;;;;;5.07;1.70;;;;;;;7.20;100.00;101943.94;5098412;28;20408;-83
2023/05/02 05:52:39;;;;;;;4.70;1.48;;;;;;;7.30;100.00;101964.75;5099859;28;20044;-83
2023/05/02 05:55:20;;;;;;;6.93;1.70;;;;;;;7.63;100.00;101986.28;5105436;28;20089;-82
2023/05/02 05:57:50;;;;;;;10.50;1.88;;;;;;;7.49;100.00;101962.91;5094803;28;20044;-83
2023/05/02 06:00:17;;;;;;;5.65;1.92;;;;;;;7.52;100.00;101982.00;5102847;28;20044;-83
2023/05/02 06:02:45;;;;;;;5.18;1.90;;;;;;;7.63;100.00;101984.53;5102933;28;20097;-83
2023/05/02 06:05:12;;;;;;;5.68;1.52;;;;;;;7.52;100.00;101942.03;5105102;28;20399;-83
2023/05/02 06:07:38;;;;;;;9.82;2.40;;;;;;;7.64;100.00;101959.38;5106895;28;20043;-82
2023/05/02 06:10:05;;;;;;;7.68;2.10;;;;;;;7.48;100.00;101940.34;5102204;27;20050;-83
2023/05/02 06:12:32;;;;;;;6.13;1.98;;;;;;;7.87;100.00;101977.47;5100279;28;20051;-81
2023/05/02 06:14:59;;;;;;;9.02;2.08;;;;;;;8.08;100.00;102005.16;5099021;28;20055;-81
2023/05/02 06:17:26;;;;;;;8.30;2.35;;;;;;;8.16;100.00;102013.78;5109588;28;20048;-82
2023/05/02 06:19:53;;;;;;;6.32;1.90;;;;;;;8.03;100.00;101986.06;5111068;28;20052;-82
2023/05/02 06:22:19;;;;;;;6.75;1.85;;;;;;;7.95;100.00;101979.16;5108829;28;20454;-82
2023/05/02 06:24:46;;;;;;;4.93;1.65;;;;;;;7.86;100.00;101919.25;5102792;28;20486;-81
2023/05/02 06:27:13;;;;;;;7.28;2.33;;;;;;;8.23;100.00;101973.72;5101579;28;20058;-82
2023/05/02 06:29:39;;;;;;;7.80;2.58;;;;;;;8.17;100.00;101948.53;5121679;27;20101;-82
2023/05/02 06:32:06;;;;;;;6.53;2.13;;;;;;;8.27;100.00;101980.66;5107827;28;20486;-81
2023/05/02 06:34:33;;;;;;;5.75;1.85;;;;;;;8.48;100.00;101966.59;5105570;28;20056;-81
2023/05/02 06:37:00;;;;;;;5.43;2.05;;;;;;;9.11;100.00;102001.63;5101986;28;20044;-82
2023/05/02 06:39:26;;;;;;;9.07;1.98;;;;;;;9.01;100.00;101960.81;5107456;28;20366;-82
2023/05/02 06:41:57;;;;;;;10.23;2.38;;;;;;;9.95;100.00;101972.63;5108134;28;20043;-81
2023/05/02 06:44:24;;;;;;;6.10;1.75;;;;;;;10.14;100.00;101953.16;5124524;27;20048;-81
2023/05/02 06:46:50;;;;;;;8.15;1.80;;;;;;;10.64;100.00;101930.50;5115121;28;20405;-80
2023/05/02 06:49:17;;;;;;;9.82;2.05;;;;;;;11.49;100.00;102006.56;5109356;28;20047;-80
2023/05/02 06:51:44;;;;;;;5.60;1.95;;;;;;;11.15;100.00;102000.25;5099889;28;20044;-80
2023/05/02 06:54:11;;;;;;;11.52;1.70;;;;;;;11.37;100.00;102012.94;5113958;28;20043;-81
2023/05/02 06:56:37;;;;;;;6.75;1.73;;;;;;;10.80;100.00;101951.13;5106427;28;20109;-81
2023/05/02 06:59:04;;;;;;;5.38;1.80;;;;;;;11.08;100.00;101987.31;5110273;28;20048;-81
2023/05/02 07:01:31;;;;;;;8.20;1.80;;;;;;;10.81;100.00;101977.31;5101982;28;20067;-81
2023/05/02 07:03:58;;;;;;;7.72;2.35;;;;;;;10.91;100.00;101961.44;5111577;28;20059;-81
2023/05/02 07:06:25;;;;;;;8.10;1.85;;;;;;;11.82;100.00;102006.75;5095871;28;20070;-83
2023/05/02 07:08:52;;;;;;;6.05;1.63;;;;;;;11.95;100.00;101995.97;5098729;28;20109;-82
2023/05/02 07:11:20;;;;;;;5.72;1.42;;;;;;;12.15;100.00;101945.59;5113322;28;20048;-82
2023/05/02 07:13:47;;;;;;;8.93;1.70;;;;;;;12.12;100.00;101973.69;5112006;28;20043;-82
2023/05/02 07:16:14;;;;;;;6.78;1.70;;;;;;;12.08;100.00;101958.94;5108140;28;20050;-83
2023/05/02 07:18:41;;;;;;;5.18;1.30;;;;;;;12.24;100.00;101980.41;5111169;28;20040;-83
2023/05/02 07:21:08;;;;;;;6.43;1.60;;;;;;;12.06;100.00;101994.84;5110163;28;20048;-82
2023/05/02 07:23:35;;;;;;;5.70;1.58;;;;;;;12.17;100.00;101968.34;5110311;28;20051;-83
2023/05/02 07:26:02;;;;;;;4.13;1.30;;;;;;;11.89;100.00;101964.56;5102710;28;20048;-82
2023/05/02 07:28:31;;;;;;;4.90;1.40;;;;;;;11.66;100.00;101954.59;5098789;28;20066;-83
2023/05/02 07:30:58;;;;;;;4.90;1.50;;;;;;;12.53;100.00;101998.91;5100470;28;20546;-83
2023/05/02 07:33:25;;;;;;;3.83;1.40;;;;;;;12.44;100.00;102020.16;5110034;28;20116;-83
2023/05/02 07:35:52;;;;;;;7.13;1.55;;;;;;;12.97;100.00;102001.25;5104620;28;20567;-83
2023/05/02 07:38:18;;;;;;;5.57;1.27;;;;;;;12.98;95.12;101992.50;5103172;28;20085;-82
2023/05/02 07:40:45;;;;;;;5.10;1.42;;;;;;;12.37;89.20;101996.72;5111282;28;20074;-82
2023/05/02 07:43:13;;;;;;;6.10;1.20;;;;;;;13.03;100.00;102037.03;5112722;28;20081;-83
2023/05/02 07:45:39;;;;;;;2.58;1.00;;;;;;;13.04;94.21;102039.63;5107551;28;20077;-82
2023/05/02 07:48:06;;;;;;;6.15;1.65;;;;;;;13.11;97.74;102033.28;5100138;28;20044;-83
2023/05/02 07:50:33;;;;;;;5.85;1.60;;;;;;;12.76;91.55;101994.81;5101868;28;20097;-82
2023/05/02 07:53:00;;;;;;;5.72;1.40;;;;;;;13.43;100.00;102041.22;5105690;28;20076;-83
2023/05/02 07:55:26;;;;;;;6.63;1.50;;;;;;;12.91;89.21;102017.22;5105082;28;20105;-82
2023/05/02 07:57:53;;;;;;;5.60;1.27;;;;;;;12.57;92.49;102039.13;5103705;28;20137;-83
2023/05/02 08:00:20;;;;;;;6.25;1.60;;;;;;;12.75;89.78;102027.28;5111029;28;20035;-83
2023/05/02 08:02:47;;;;;;;7.93;1.80;;;;;;;11.91;90.23;101986.41;5109384;28;20436;-83
2023/05/02 08:05:13;;;;;;;3.15;1.23;;;;;;;12.15;93.10;102020.88;5111440;28;20051;-83
2023/05/02 08:07:41;;;;;;;4.28;1.20;;;;;;;12.90;98.19;101986.56;5105313;28;20404;-82
2023/05/02 08:10:09;;;;;;;6.20;1.52;;;;;;;13.11;90.44;102048.22;5100652;28;20501;-81
2023/05/02 08:12:40;;;;;;;6.38;1.33;;;;;;;13.08;89.21;102056.19;5105743;28;20464;-82
2023/05/02 08:15:10;;;;;;;4.95;1.30;;;;;;;13.04;91.32;102009.84;5108992;28;20047;-82
2023/05/02 08:17:37;;;;;;;4.35;1.25;;;;;;;13.15;94.30;102006.91;5102829;28;20043;-82
2023/05/02 08:20:05;;;;;;;5.80;1.20;;;;;;;13.15;94.02;102038.47;5114131;28;20051;-82
2023/05/02 08:22:31;;;;;;;4.85;1.10;;;;;;;13.00;86.59;102034.50;5104732;28;20056;-83
2023/05/02 08:24:58;;;;;;;4.15;1.25;;;;;;;13.09;84.03;102021.09;5093214;28;20044;-82
2023/05/02 08:27:25;;;;;;;2.65;1.20;;;;;;;12.63;83.40;102023.19;5108315;28;20047;-82
2023/05/02 08:29:51;;;;;;;4.68;1.10;;;;;;;12.74;89.63;102049.19;5106494;28;20051;-83
2023/05/02 08:32:18;;;;;;;2.35;0.90;;;;;;;12.66;84.02;102072.16;5112391;28;20051;-83
2023/05/02 08:34:45;;;;;;;5.43;1.52;;;;;;;12.68;89.10;102078.28;5102525;28;20063;-82
2023/05/02 08:37:12;;;;;;;4.85;1.30;;;;;;;12.22;89.13;102071.50;5107393;28;20044;-82
2023/05/02 08:39:38;;;;;;;7.30;1.88;;;;;;;11.81;88.48;102060.09;5105649;28;20422;-82
2023/05/02 08:42:06;;;;;;;7.22;1.45;;;;;;;12.12;100.00;102041.94;5102746;28;20077;-80
2023/05/02 08:44:33;;;;;;;4.93;1.30;;;;;;;12.63;97.17;102064.38;5104380;28;20130;-81
2023/05/02 08:47:01;;;;;;;4.13;1.10;;;;;;;12.54;95.41;102041.81;5103192;28;20379;-81
2023/05/02 08:49:31;;;;;;;12.10;7.68;;;;;;;12.82;94.25;102067.38;5112364;28;20672;-81
2023/05/02 08:52:01;;;;;;;6.13;1.80;;;;;;;12.72;92.80;102079.91;5109925;28;20052;-81
2023/05/02 08:54:28;;;;;;;10.90;1.75;;;;;;;12.19;91.56;102050.56;5104110;28;20046;-81
2023/05/02 08:56:55;;;;;;;4.43;1.33;;;;;;;12.69;95.44;102048.44;5111674;28;20043;-81
2023/05/02 08:59:22;;;;;;;5.97;1.35;;;;;;;12.36;87.62;101998.50;5107898;28;20059;-80
2023/05/02 09:01:54;;;;;;;5.47;1.70;;;;;;;12.75;90.09;102052.66;5096923;28;20105;-81
2023/05/02 09:04:23;;;;;;;9.02;1.60;;;;;;;12.14;94.75;102041.00;5110935;28;20485;-81
2023/05/02 09:06:50;;;;;;;7.35;1.90;;;;;;;12.36;95.39;102009.00;5110322;28;20101;-81
2023/05/02 09:09:17;;;;;;;4.88;1.65;;;;;;;11.86;100.00;102040.72;5100981;28;20059;-81
2023/05/02 09:11:46;;;;;;;4.68;1.30;;;;;;;12.09;100.00;102034.13;5106097;28;20086;-81
2023/05/02 09:14:14;;;;;;;3.78;1.35;;;;;;;12.80;96.21;102064.81;5100313;28;20052;-81
2023/05/02 09:16:42;;;;;;;6.32;1.48;;;;;;;12.48;96.34;102027.09;5102704;28;20044;-81
2023/05/02 09:19:09;;;;;;;7.18;1.40;;;;;;;12.68;95.89;102023.09;5091077;28;20101;-81
2023/05/02 09:21:38;;;;;;;6.15;1.60;;;;;;;12.68;92.07;102075.63;5107396;28;20043;-81
2023/05/02 09:24:19;;;;;;;6.82;1.58;;;;;;;11.87;99.53;102081.84;5106367;28;20043;-81
2023/05/02 09:27:03;;;;;;;3.15;1.13;;;;;;;12.66;99.91;102073.03;5102643;28;20063;-81
2023/05/02 09:29:37;;;;;;;3.35;1.17;;;;;;;12.93;95.24;102052.22;5097108;28;20060;-81
2023/05/02 09:32:05;;;;;;;6.97;1.50;;;;;;;12.69;96.04;102056.31;5100166;28;20047;-81
2023/05/02 09:34:33;;;;;;;6.50;1.65;;;;;;;13.18;95.17;102067.34;5095929;28;20052;-81
2023/05/02 09:37:00;;;;;;;4.63;1.50;;;;;;;13.01;91.96;102065.13;5118259;28;20052;-81
2023/05/02 09:39:28;;;;;;;8.18;1.65;;;;;;;12.00;94.52;102022.09;5103199;28;20048;-81
2023/05/02 09:41:55;;;;;;;3.20;1.20;;;;;;;12.57;97.16;102057.53;5105972;28;20398;-81
2023/05/02 09:44:34;;;;;;;3.58;1.27;;;;;;;12.46;100.00;102084.03;5115390;28;20051;-81
2023/05/02 09:47:01;;;;;;;5.47;1.63;;;;;;;11.63;100.00;102040.38;5111454;28;20047;-82
2023/05/02 09:49:40;;;;;;;5.28;1.50;;;;;;;11.86;100.00;102056.47;5107950;28;20048;-81
2023/05/02 09:52:15;;;;;;;5.35;1.45;;;;;;;12.47;100.00;102091.00;5106540;28;20047;-80
2023/05/02 09:54:43;;;;;;;4.70;1.50;;;;;;;12.23;100.00;102047.81;5109269;28;20052;-82
2023/05/02 09:57:10;;;;;;;4.82;1.55;;;;;;;11.77;100.00;102086.44;5107114;28;20047;-82
2023/05/02 09:59:38;;;;;;;6.28;1.52;;;;;;;12.24;100.00;102064.44;5100844;28;20488;-82
2023/05/02 10:02:08;;;;;;;6.18;1.40;;;;;;;12.44;100.00;102080.56;5103396;28;20043;-82
2023/05/02 10:04:35;;;;;;;9.50;2.20;;;;;;;11.53;100.00;102035.31;5099937;27;20060;-82
2023/05/02 10:07:03;;;;;;;4.13;1.65;;;;;;;12.41;100.00;102050.88;5116088;27;20101;-83
2023/05/02 10:09:34;;;;;;;5.95;1.67;;;;;;;12.70;100.00;102047.56;5111697;28;20128;-86
2023/05/02 10:12:06;;;;;;;6.18;1.83;;;;;;;13.14;100.00;102048.16;5105801;28;20481;-84
2023/05/02 10:14:44;;;;;;;6.60;1.70;;;;;;;13.02;100.00;102069.50;5108512;28;20048;-84
2023/05/02 10:17:20;;;;;;;5.65;1.73;;;;;;;12.96;97.56;102060.03;5115132;27;20291;-83
2023/05/02 10:19:54;;;;;;;7.13;1.85;;;;;;;12.65;100.00;102050.28;5111997;27;20101;-84
2023/05/02 10:22:21;;;;;;;10.52;2.63;;;;;;;12.33;100.00;102064.22;5108421;27;20046;-84
2023/05/02 10:24:49;;;;;;;5.32;1.60;;;;;;;12.42;100.00;102089.41;5102353;28;20069;-84
2023/05/02 10:27:16;;;;;;;6.70;1.65;;;;;;;12.59;100.00;102060.06;5098693;28;20531;-85
2023/05/02 10:29:43;;;;;;;9.13;1.83;;;;;;;11.69;100.00;102048.13;5104460;28;20055;-84
2023/05/02 10:32:11;;;;;;;7.95;1.90;;;;;;;11.45;100.00;102045.09;5113883;28;20065;-84
2023/05/02 10:34:39;;;;;;;14.30;2.25;;;;;;;10.97;100.00;102092.34;5106778;28;20416;-84
2023/05/02 10:37:06;;;;;;;6.25;1.77;;;;;;;11.61;100.00;102085.00;5113691;28;20051;-84
2023/05/02 10:39:33;;;;;;;6.82;2.00;;;;;;;11.61;100.00;102065.78;5110660;28;20473;-84
2023/05/02 10:42:02;;;;;;;8.05;1.60;;;;;;;11.70;100.00;102091.81;5108174;28;20118;-83
2023/05/02 10:44:36;;;;;;;7.95;1.63;;;;;;;11.02;100.00;102088.75;5109251;28;20043;-85
2023/05/02 10:47:19;;;;;;;4.93;1.45;;;;;;;11.16;100.00;102095.50;5106229;28;20070;-83
2023/05/02 10:49:49;;;;;;;10.50;2.05;;;;;;;11.26;100.00;102091.81;5097041;28;20048;-83
2023/05/02 10:52:37;;;;;;;12.57;2.10;;;;;;;11.19;100.00;102043.00;5107673;28;20595;-82
2023/05/02 10:55:19;;;;;;;11.32;2.20;;;;;;;11.37;100.00;102099.47;5114006;28;20055;-88
2023/05/02 10:57:58;;;;;;;5.60;1.83;;;;;;;11.56;100.00;102098.22;5100851;28;20059;-83
2023/05/02 11:00:29;;;;;;;7.10;1.88;;;;;;;11.47;100.00;102073.94;5097475;28;20055;-84
2023/05/02 11:02:56;;;;;;;8.85;2.05;;;;;;;10.91;100.00;102095.09;5107423;28;20083;-84
2023/05/02 11:05:24;;;;;;;6.85;1.80;;;;;;;11.33;100.00;102063.69;5097087;28;20451;-84
2023/05/02 11:08:14;;;;;;;6.32;1.75;;;;;;;11.72;100.00;102088.28;5104080;28;20059;-83
2023/05/02 11:10:44;;;;;;;10.13;2.13;;;;;;;11.33;100.00;102074.19;5094504;28;20039;-83
2023/05/02 11:13:11;;;;;;;6.28;1.75;;;;;;;10.80;100.00;102041.09;5105114;28;20052;-85
2023/05/02 11:15:41;;;;;;;6.85;1.88;;;;;;;10.94;100.00;102090.66;5115395;28;20130;-84
2023/05/02 11:18:12;;;;;;;8.30;2.10;;;;;;;11.40;100.00;102099.41;5100031;28;20058;-86
2023/05/02 11:20:44;;;;;;;7.25;2.13;;;;;;;11.18;100.00;102064.88;5105926;28;20047;-81
2023/05/02 11:23:20;;;;;;;7.30;2.10;;;;;;;11.20;100.00;102118.13;5104639;28;20764;-81
2023/05/02 11:25:48;;;;;;;8.30;1.80;;;;;;;11.04;100.00;102112.31;5096387;28;20048;-80
2023/05/02 11:28:38;;;;;;;7.07;2.10;;;;;;;10.91;100.00;102113.41;5108259;28;20047;-81
2023/05/02 11:31:29;;;;;;;7.07;2.35;;;;;;;10.83;100.00;102122.25;5114025;28;20055;-79
2023/05/02 11:34:01;;;;;;;6.40;2.13;;;;;;;10.34;100.00;102095.97;5097389;28;20047;-79